Driscoll, North Dakota
Current Conditions -  °F | °C
As of 4:52 PM on Monday 24 Nov 2014 (Local Time) from KBIS Reporting Station
Clear Clear  
Wind Chill: 14°   Ceiling: Unl
Heat Index: 25°   Visibility: 10mi
Dew Point:   Wind: 12mph
Humidity: 45%   Direction: 300°WNW
Pressure: 30"   Gusts: NA
Location:  46.84°N, 100.14°W
Report Text: KBIS 242252Z 30010KT 10SM CLR M04/M14 A3000 RMK AO2 SLP188 T10391144
Loading
Personal Weather Stations






























Interactive Weather Map New forecast layout! Learn more

10-Day Weather Forecast

Advertisements
Track Severe Weather on mobile